createdAt,value
2023-04-17T00:00:25.081Z,8.30
2023-04-17T00:04:33.579Z,8.30
2023-04-17T00:08:44.652Z,8.30
2023-04-17T00:12:47.676Z,8.20
2023-04-17T00:16:50.853Z,8.20
2023-04-17T00:20:58.348Z,8.10
2023-04-17T00:25:01.472Z,8.00
2023-04-17T00:29:04.931Z,8.00
2023-04-17T00:33:08.148Z,7.90
2023-04-17T00:37:13.673Z,7.80
2023-04-17T00:41:22.728Z,7.80
2023-04-17T00:45:26.112Z,7.80
2023-04-17T00:49:30.160Z,7.80
2023-04-17T00:53:38.015Z,7.70
2023-04-17T00:57:41.952Z,7.60
2023-04-17T01:01:49.771Z,7.60
2023-04-17T01:05:55.487Z,7.60
2023-04-17T01:10:02.415Z,7.60
2023-04-17T01:14:05.401Z,7.50
2023-04-17T01:18:08.636Z,7.50
2023-04-17T01:22:11.691Z,7.50
2023-04-17T01:26:19.550Z,7.50
2023-04-17T01:30:22.703Z,7.50
2023-04-17T01:34:28.204Z,7.40
2023-04-17T01:38:33.964Z,7.40
2023-04-17T01:42:40.148Z,7.40
2023-04-17T01:46:43.376Z,7.30
2023-04-17T01:50:46.581Z,7.30
2023-04-17T01:54:52.560Z,7.20
2023-04-17T01:58:59.373Z,7.10
2023-04-17T02:03:06.396Z,7.10
2023-04-17T02:07:09.769Z,7.00
2023-04-17T02:11:14.068Z,7.00
2023-04-17T02:15:18.662Z,6.90
2023-04-17T02:19:22.924Z,6.80
2023-04-17T02:23:31.053Z,6.80
2023-04-17T02:27:37.089Z,6.90
2023-04-17T02:31:42.560Z,6.80
2023-04-17T02:35:56.294Z,6.90
2023-04-17T02:40:01.660Z,6.80
2023-04-17T02:44:05.075Z,6.80
2023-04-17T02:48:09.866Z,6.80
2023-04-17T02:52:15.669Z,6.90
2023-04-17T02:56:23.410Z,6.90
2023-04-17T03:00:28.096Z,6.90
2023-04-17T03:04:36.886Z,6.80
2023-04-17T03:08:40.175Z,6.80
2023-04-17T03:12:43.179Z,6.80
2023-04-17T03:16:46.252Z,6.80
2023-04-17T03:20:54.254Z,6.80
2023-04-17T03:24:57.267Z,6.70
2023-04-17T03:29:12.764Z,6.60
2023-04-17T03:33:16.360Z,6.30
2023-04-17T03:37:23.534Z,6.10
2023-04-17T03:41:26.597Z,6.00
2023-04-17T03:45:29.917Z,5.90
2023-04-17T03:49:32.963Z,5.90
2023-04-17T03:53:40.644Z,6.10
2023-04-17T03:57:48.558Z,6.20
2023-04-17T04:01:55.098Z,6.30
2023-04-17T04:05:58.179Z,6.40
2023-04-17T04:10:13.678Z,6.20
2023-04-17T04:14:16.876Z,6.00
2023-04-17T04:18:20.124Z,5.80
2023-04-17T04:22:25.933Z,5.90
2023-04-17T04:26:31.663Z,6.00
2023-04-17T04:30:42.829Z,6.20
2023-04-17T04:34:46.247Z,6.40
2023-04-17T04:38:50.677Z,6.50
2023-04-17T04:43:02.149Z,6.50
2023-04-17T04:47:05.847Z,6.20
2023-04-17T04:51:11.125Z,6.10
2023-04-17T04:55:15.790Z,6.10
2023-04-17T04:59:20.196Z,6.00
2023-04-17T05:03:25.672Z,6.10
2023-04-17T05:07:28.790Z,6.20
2023-04-17T05:11:33.877Z,6.50
2023-04-17T05:15:38.734Z,6.70
2023-04-17T05:19:41.875Z,6.90
2023-04-17T05:23:44.910Z,7.00
2023-04-17T05:27:50.415Z,7.10
2023-04-17T05:32:00.652Z,7.20
2023-04-17T05:36:03.802Z,7.30
2023-04-17T05:40:10.567Z,7.40
2023-04-17T05:44:13.583Z,7.50
2023-04-17T05:48:18.050Z,7.60
2023-04-17T05:52:23.501Z,7.70
2023-04-17T05:56:27.112Z,7.90
2023-04-17T06:00:31.220Z,8.10
2023-04-17T06:04:37.638Z,8.30
2023-04-17T06:08:43.676Z,8.50
2023-04-17T06:12:47.336Z,8.60
2023-04-17T06:16:50.458Z,8.80
2023-04-17T06:20:54.937Z,9.00
2023-04-17T06:24:57.980Z,9.20
2023-04-17T06:29:04.239Z,9.40
2023-04-17T06:33:07.289Z,9.60
2023-04-17T06:37:13.748Z,9.80
2023-04-17T06:41:18.275Z,9.90
2023-04-17T06:45:21.399Z,9.90
2023-04-17T06:49:24.407Z,10.00
2023-04-17T06:53:28.906Z,10.10
2023-04-17T06:57:34.068Z,10.20
2023-04-17T07:01:41.451Z,10.20
2023-04-17T07:05:48.464Z,10.30
2023-04-17T07:09:52.879Z,10.40
2023-04-17T07:13:58.349Z,10.60
2023-04-17T07:18:04.616Z,10.90
2023-04-17T07:22:08.071Z,11.40
2023-04-17T07:26:13.925Z,11.80
2023-04-17T07:30:18.796Z,12.20
2023-04-17T07:34:22.960Z,12.30
2023-04-17T07:38:29.187Z,12.50
2023-04-17T07:42:33.851Z,12.90
2023-04-17T07:46:40.176Z,12.80
2023-04-17T07:50:59.412Z,12.60
2023-04-17T07:55:02.426Z,12.40
2023-04-17T07:59:07.090Z,13.00
2023-04-17T08:03:10.306Z,12.80
2023-04-17T08:07:14.568Z,13.30
2023-04-17T08:11:19.848Z,14.00
2023-04-17T08:15:24.478Z,14.10
2023-04-17T08:19:27.766Z,13.70
2023-04-17T08:23:30.977Z,13.60
2023-04-17T08:27:34.367Z,13.50
2023-04-17T08:31:40.458Z,13.50
2023-04-17T08:35:43.520Z,13.40
2023-04-17T08:39:52.502Z,13.30
2023-04-17T08:43:56.821Z,13.30
2023-04-17T08:48:05.697Z,13.20
2023-04-17T08:52:09.831Z,13.30
2023-04-17T08:56:22.516Z,13.50
2023-04-17T09:00:27.223Z,13.40
2023-04-17T09:04:39.491Z,13.40
2023-04-17T09:08:56.956Z,13.50
2023-04-17T09:13:03.848Z,13.70
2023-04-17T09:17:07.035Z,13.70
2023-04-17T09:21:11.761Z,13.90
2023-04-17T09:25:18.728Z,14.00
2023-04-17T09:29:24.336Z,14.20
2023-04-17T09:33:27.465Z,14.50
2023-04-17T09:37:59.444Z,15.10
2023-04-17T09:42:04.333Z,14.60
2023-04-17T09:46:10.058Z,14.70
2023-04-17T09:50:13.540Z,14.70
2023-04-17T09:54:20.397Z,15.10
2023-04-17T09:58:23.626Z,15.20
2023-04-17T10:02:30.066Z,15.20
2023-04-17T10:06:33.893Z,16.10
2023-04-17T10:10:38.361Z,16.40
2023-04-17T10:14:44.295Z,16.80
2023-04-17T10:18:47.323Z,17.00
2023-04-17T10:22:54.576Z,16.90
2023-04-17T10:27:01.370Z,16.80
2023-04-17T10:31:06.336Z,16.50
2023-04-17T10:35:38.211Z,16.30
2023-04-17T10:39:56.888Z,16.40
2023-04-17T10:44:04.401Z,16.30
2023-04-17T10:48:09.884Z,16.50
2023-04-17T10:52:41.649Z,16.60
2023-04-17T10:56:49.311Z,16.40
2023-04-17T11:00:53.948Z,15.80
2023-04-17T11:05:08.630Z,15.20
2023-04-17T11:09:13.380Z,14.70
2023-04-17T11:13:16.877Z,13.60
2023-04-17T11:17:26.429Z,12.90
2023-04-17T11:21:29.616Z,12.80
2023-04-17T11:25:34.612Z,12.90
2023-04-17T11:29:38.100Z,13.20
2023-04-17T11:33:42.646Z,13.30
2023-04-17T11:38:21.737Z,13.00
2023-04-17T11:42:28.309Z,12.70
2023-04-17T11:46:31.652Z,12.70
2023-04-17T11:50:37.612Z,13.60
2023-04-17T11:54:43.749Z,14.10
2023-04-17T11:58:48.217Z,14.50
2023-04-17T12:02:52.035Z,14.70
2023-04-17T12:06:59.863Z,14.70
2023-04-17T12:11:03.000Z,14.70
2023-04-17T12:15:07.165Z,14.70
2023-04-17T12:19:16.784Z,14.40
2023-04-17T12:23:22.466Z,13.50
2023-04-17T12:27:29.104Z,13.00
2023-04-17T12:31:34.886Z,12.70
2023-04-17T12:35:42.571Z,12.70
2023-04-17T12:39:52.348Z,12.60
2023-04-17T12:43:55.544Z,12.70
2023-04-17T12:47:58.898Z,13.00
2023-04-17T12:52:03.634Z,13.10
2023-04-17T12:56:10.446Z,13.20
2023-04-17T13:00:14.482Z,13.40
2023-04-17T13:04:19.935Z,13.80
2023-04-17T13:08:25.453Z,14.00
2023-04-17T13:12:31.770Z,14.20
2023-04-17T13:16:34.804Z,14.80
2023-04-17T13:20:41.941Z,14.40
2023-04-17T13:24:46.769Z,14.30
2023-04-17T13:28:51.175Z,14.10
2023-04-17T13:32:56.914Z,14.10
2023-04-17T13:37:00.040Z,14.30
2023-04-17T13:41:03.104Z,14.70
2023-04-17T13:45:12.431Z,15.20
2023-04-17T13:49:24.732Z,15.70
2023-04-17T13:53:27.794Z,16.00
2023-04-17T13:57:39.198Z,16.40
2023-04-17T14:01:43.648Z,16.80
2023-04-17T14:05:49.529Z,16.80
2023-04-17T14:09:52.542Z,16.60
2023-04-17T14:14:01.719Z,16.90
2023-04-17T14:18:10.337Z,16.70
2023-04-17T14:22:17.288Z,16.80
2023-04-17T14:26:22.218Z,17.10
2023-04-17T14:30:27.594Z,16.40
2023-04-17T14:34:35.665Z,15.90
2023-04-17T14:38:40.406Z,15.50
2023-04-17T14:42:54.023Z,15.30
2023-04-17T14:47:04.800Z,16.30
2023-04-17T14:51:15.322Z,17.20
2023-04-17T14:55:18.331Z,17.60
2023-04-17T14:59:22.943Z,17.30
2023-04-17T15:03:30.512Z,17.20
2023-04-17T15:07:35.127Z,17.30
2023-04-17T15:11:38.432Z,17.20
2023-04-17T15:15:41.455Z,17.10
2023-04-17T15:19:44.804Z,16.80
2023-04-17T15:23:49.669Z,16.70
2023-04-17T15:27:54.177Z,16.70
2023-04-17T15:31:57.340Z,16.80
2023-04-17T15:36:01.275Z,16.70
2023-04-17T15:40:08.950Z,16.70
2023-04-17T15:44:17.183Z,16.80
2023-04-17T15:48:22.967Z,16.70
2023-04-17T15:52:31.765Z,16.80
2023-04-17T15:56:36.157Z,16.50
2023-04-17T16:00:41.620Z,16.50
2023-04-17T16:04:47.662Z,16.40
2023-04-17T16:08:50.785Z,16.40
2023-04-17T16:12:55.179Z,16.50
2023-04-17T16:17:01.266Z,16.60
2023-04-17T16:21:05.032Z,16.90
2023-04-17T16:25:08.836Z,16.70
2023-04-17T16:29:17.545Z,16.70
2023-04-17T16:33:22.688Z,17.00
2023-04-17T16:37:28.189Z,17.00
2023-04-17T16:41:31.268Z,16.40
2023-04-17T16:45:40.390Z,15.80
2023-04-17T16:49:43.876Z,15.30
2023-04-17T16:53:50.967Z,15.10
2023-04-17T16:57:54.634Z,15.10
2023-04-17T17:02:00.165Z,14.70
2023-04-17T17:06:07.109Z,14.40
2023-04-17T17:10:11.508Z,14.20
2023-04-17T17:14:16.189Z,13.90
2023-04-17T17:18:20.635Z,13.80
2023-04-17T17:22:23.673Z,13.70
2023-04-17T17:26:30.436Z,13.60
2023-04-17T17:30:34.689Z,13.00
2023-04-17T17:34:39.126Z,12.20
2023-04-17T17:38:42.350Z,11.60
2023-04-17T17:42:46.000Z,11.20
2023-04-17T17:46:50.364Z,11.00
2023-04-17T17:50:58.468Z,10.80
2023-04-17T17:55:03.554Z,10.60
2023-04-17T17:59:07.824Z,10.50
2023-04-17T18:03:11.143Z,10.50
2023-04-17T18:07:17.888Z,10.50
2023-04-17T18:11:21.289Z,10.30
2023-04-17T18:15:27.024Z,10.20
2023-04-17T18:19:32.186Z,10.10
2023-04-17T18:23:36.777Z,10.00
2023-04-17T18:27:40.056Z,10.00
2023-04-17T18:31:47.097Z,10.00
2023-04-17T18:35:50.328Z,9.90
2023-04-17T18:39:54.739Z,9.90
2023-04-17T18:43:58.164Z,9.80
2023-04-17T18:48:01.363Z,9.80
2023-04-17T18:52:09.150Z,9.80
2023-04-17T18:56:16.516Z,9.80
2023-04-17T19:00:20.133Z,9.80
2023-04-17T19:04:26.316Z,9.70
2023-04-17T19:08:29.455Z,9.70
2023-04-17T19:12:45.042Z,9.60
2023-04-17T19:16:50.552Z,9.60
2023-04-17T19:20:53.707Z,9.60
2023-04-17T19:24:56.740Z,9.60
2023-04-17T19:29:05.376Z,9.50
2023-04-17T19:33:13.424Z,9.40
2023-04-17T19:37:19.103Z,9.40
2023-04-17T19:41:22.342Z,9.30
2023-04-17T19:45:28.127Z,9.20
2023-04-17T19:49:32.368Z,9.10
2023-04-17T19:53:36.600Z,9.10
2023-04-17T19:57:39.610Z,9.00
2023-04-17T20:01:44.576Z,9.00
2023-04-17T20:05:47.736Z,9.00
2023-04-17T20:09:54.890Z,9.00
2023-04-17T20:13:57.945Z,9.10
2023-04-17T20:18:04.141Z,9.10
2023-04-17T20:22:10.686Z,9.10
2023-04-17T20:26:14.205Z,9.00
2023-04-17T20:30:20.256Z,9.00
2023-04-17T20:34:25.972Z,8.90
2023-04-17T20:38:29.272Z,8.80
2023-04-17T20:42:34.358Z,8.80
2023-04-17T20:46:37.801Z,8.70
2023-04-17T20:50:45.156Z,8.80
2023-04-17T20:54:49.154Z,8.80
2023-04-17T20:58:56.689Z,8.90
2023-04-17T21:03:02.616Z,8.90
2023-04-17T21:07:07.888Z,8.80
2023-04-17T21:11:11.014Z,8.70
2023-04-17T21:15:17.333Z,8.80
2023-04-17T21:19:20.653Z,8.80
2023-04-17T21:23:25.063Z,8.70
2023-04-17T21:27:33.143Z,8.60
2023-04-17T21:31:36.276Z,8.60
2023-04-17T21:35:41.183Z,8.60
2023-04-17T21:39:45.575Z,8.50
2023-04-17T21:43:48.782Z,8.50
2023-04-17T21:47:51.884Z,8.40
2023-04-17T21:51:55.098Z,8.40
2023-04-17T21:55:59.474Z,8.40
2023-04-17T22:00:06.270Z,8.40
2023-04-17T22:04:09.323Z,8.40
2023-04-17T22:08:13.494Z,8.40
2023-04-17T22:12:20.796Z,8.50
2023-04-17T22:16:24.217Z,8.50
2023-04-17T22:20:27.538Z,8.50
2023-04-17T22:24:36.482Z,8.40
2023-04-17T22:28:43.485Z,8.40
2023-04-17T22:32:47.751Z,8.40
2023-04-17T22:36:51.010Z,8.40
2023-04-17T22:40:54.090Z,8.50
2023-04-17T22:44:58.708Z,8.50
2023-04-17T22:49:09.921Z,8.50
2023-04-17T22:53:12.987Z,8.50
2023-04-17T22:57:16.067Z,8.50
2023-04-17T23:01:20.887Z,8.50
2023-04-17T23:05:24.546Z,8.50
2023-04-17T23:09:27.618Z,8.50
2023-04-17T23:13:31.776Z,8.50
2023-04-17T23:17:36.237Z,8.40
2023-04-17T23:21:39.347Z,8.30
2023-04-17T23:25:46.522Z,8.30
2023-04-17T23:29:49.827Z,8.30
2023-04-17T23:33:54.466Z,8.20
2023-04-17T23:37:57.478Z,8.20
2023-04-17T23:42:06.973Z,8.10
2023-04-17T23:46:13.051Z,8.10
2023-04-17T23:50:21.999Z,8.00
2023-04-17T23:54:28.063Z,8.00
2023-04-17T23:58:31.145Z,8.00
